Time;durP1;ratioP1;P1;durP2;ratioP2;P2;SDS_P1;SDS_P2;PMS_P1;PMS_P2;Temp;Humidity;BMP_temperature;BMP_pressure;BME280_temperature;BME280_humidity;BME280_pressure;Samples;Min_cycle;Max_cycle;Signal;HPM_P1;HPM_P2
2022/08/03 00:04:29;;;;;;;1.25;0.60;;;22.00;99.90;;;;;;6721247;88;20236;-76
2022/08/03 00:14:30;;;;;;;1.50;0.57;;;21.80;99.90;;;;;;6722356;88;20210;-73
2022/08/03 00:24:30;;;;;;;1.37;0.73;;;21.70;99.90;;;;;;6722229;88;20187;-73
2022/08/03 00:34:31;;;;;;;1.30;0.60;;;21.30;99.90;;;;;;6722659;88;20197;-73
2022/08/03 00:44:39;;;;;;;1.30;0.75;;;21.40;99.90;;;;;;6724988;88;20229;-73
2022/08/03 00:54:40;;;;;;;0.85;0.50;;;21.30;99.90;;;;;;6724725;88;20197;-73
2022/08/03 01:04:40;;;;;;;1.20;0.70;;;21.50;99.90;;;;;;6725127;88;20240;-73
2022/08/03 01:14:50;;;;;;;1.10;0.57;;;21.10;99.90;;;;;;6739532;88;20977;-74
2022/08/03 01:25:18;;;;;;;1.10;0.57;;;21.00;99.90;;;;;;6720452;88;20263;-74
2022/08/03 01:35:26;;;;;;;1.02;0.60;;;20.90;99.90;;;;;;6720516;88;20393;-74
2022/08/03 01:45:28;;;;;;;1.40;0.60;;;20.70;99.90;;;;;;6718082;88;20246;-74
2022/08/03 01:55:32;;;;;;;1.10;0.60;;;20.60;99.90;;;;;;6723849;88;20719;-75
2022/08/03 02:05:33;;;;;;;1.00;0.50;;;20.50;99.90;;;;;;6719619;88;20317;-75
2022/08/03 02:15:36;;;;;;;1.73;0.75;;;20.40;99.90;;;;;;6722361;88;20709;-74
2022/08/03 02:26:02;;;;;;;0.98;0.60;;;20.30;99.90;;;;;;6721398;88;20331;-75
2022/08/03 02:36:05;;;;;;;1.08;0.57;;;20.40;99.90;;;;;;6718721;88;20195;-74
2022/08/03 02:46:08;;;;;;;0.90;0.60;;;20.40;99.90;;;;;;6719009;88;20218;-74
2022/08/03 02:56:09;;;;;;;1.08;0.70;;;20.40;99.90;;;;;;6717348;88;20206;-75
2022/08/03 03:06:11;;;;;;;1.33;0.82;;;20.20;99.90;;;;;;6717875;88;20244;-74
2022/08/03 03:16:13;;;;;;;1.83;0.60;;;20.10;99.90;;;;;;6718073;88;20234;-74
2022/08/03 03:26:14;;;;;;;1.30;0.80;;;19.90;99.90;;;;;;6720521;88;20204;-74
2022/08/03 03:36:15;;;;;;;0.88;0.50;;;19.80;99.90;;;;;;6723228;88;20186;-74
2022/08/03 03:46:15;;;;;;;1.07;0.67;;;19.70;99.90;;;;;;6719961;88;20200;-74
2022/08/03 03:56:17;;;;;;;1.00;0.50;;;19.80;99.90;;;;;;6721713;88;20635;-74
2022/08/03 04:16:41;;;;;;;1.20;0.70;;;19.50;99.90;;;;;;6722234;88;20237;-74
2022/08/03 04:26:45;;;;;;;1.30;0.60;;;19.40;99.90;;;;;;6716717;88;20213;-74
2022/08/03 04:36:50;;;;;;;1.25;0.70;;;19.50;99.90;;;;;;6721207;88;20161;-74
2022/08/03 04:46:51;;;;;;;1.60;0.93;;;19.50;99.90;;;;;;6730830;76;20193;-74
2022/08/03 04:56:52;;;;;;;1.27;0.75;;;19.60;99.90;;;;;;6729280;88;20266;-74
2022/08/03 05:06:52;;;;;;;1.75;0.90;;;19.60;99.90;;;;;;6726167;88;20731;-75
2022/08/03 05:16:53;;;;;;;3.10;0.93;;;19.70;99.90;;;;;;6723037;88;20227;-76
2022/08/03 05:26:53;;;;;;;1.20;0.70;;;19.80;99.90;;;;;;6716633;88;20336;-75
2022/08/03 05:36:54;;;;;;;1.45;0.80;;;20.20;99.90;;;;;;6721427;88;20616;-76
2022/08/03 05:46:54;;;;;;;1.50;0.90;;;20.50;99.90;;;;;;6727205;88;20676;-77
2022/08/03 05:56:55;;;;;;;1.62;0.80;;;20.80;99.90;;;;;;6728852;88;20268;-75
2022/08/03 06:06:55;;;;;;;1.62;0.90;;;21.20;99.90;;;;;;6725144;88;20558;-77
2022/08/03 06:16:56;;;;;;;1.20;0.75;;;21.90;99.90;;;;;;6727521;88;20302;-77
2022/08/03 06:26:56;;;;;;;1.25;0.65;;;22.50;99.90;;;;;;6723461;88;20245;-78
2022/08/03 06:36:57;;;;;;;1.83;0.75;;;23.10;99.90;;;;;;6728755;88;20191;-78
2022/08/03 06:46:57;;;;;;;1.87;0.90;;;23.60;99.90;;;;;;6740927;88;20259;-77
2022/08/03 06:56:58;;;;;;;1.73;1.00;;;24.00;99.90;;;;;;6734012;88;20238;-78
2022/08/03 07:06:59;;;;;;;1.50;0.90;;;24.70;99.90;;;;;;6733731;88;20291;-78
2022/08/03 07:16:59;;;;;;;1.77;0.80;;;25.20;99.90;;;;;;6733823;88;20196;-78
2022/08/03 07:27:00;;;;;;;1.30;0.80;;;25.50;99.90;;;;;;6738089;88;20277;-78
2022/08/03 07:37:00;;;;;;;1.37;0.85;;;25.60;99.90;;;;;;6732966;88;20739;-78
2022/08/03 07:47:01;;;;;;;1.27;0.80;;;26.20;99.90;;;;;;6722808;88;20201;-79
2022/08/03 07:57:02;;;;;;;1.67;1.00;;;26.80;99.90;;;;;;6738887;88;20230;-78
2022/08/03 08:07:02;;;;;;;1.40;0.90;;;27.40;99.90;;;;;;6738849;88;20202;-78
2022/08/03 08:17:03;;;;;;;1.58;0.80;;;28.40;99.40;;;;;;6735997;88;20205;-78
2022/08/03 08:27:03;;;;;;;1.37;0.90;;;29.20;98.00;;;;;;6736385;88;20213;-78
2022/08/03 08:37:04;;;;;;;1.23;0.90;;;30.00;96.70;;;;;;6739522;88;20516;-78
2022/08/03 08:47:06;;;;;;;1.17;0.85;;;31.10;95.50;;;;;;6733776;88;20186;-78
2022/08/03 08:57:08;;;;;;;1.20;0.75;;;32.40;93.90;;;;;;6734426;88;20558;-78
2022/08/03 09:07:09;;;;;;;1.30;0.80;;;32.60;92.80;;;;;;6737151;88;20440;-78
2022/08/03 09:17:10;;;;;;;1.10;0.77;;;33.70;90.40;;;;;;6740523;88;20332;-78
2022/08/03 09:27:12;;;;;;;1.33;0.70;;;34.60;89.50;;;;;;6736358;88;20211;-79
2022/08/03 09:37:15;;;;;;;1.58;0.90;;;35.30;87.00;;;;;;6741022;88;20205;-78
2022/08/03 09:47:35;;;;;;;1.20;0.80;;;35.60;83.90;;;;;;6731553;88;20193;-79
2022/08/03 09:57:35;;;;;;;1.20;0.82;;;36.70;81.90;;;;;;6736290;88;20181;-79
2022/08/03 10:07:46;;;;;;;1.10;0.70;;;35.40;82.00;;;;;;6738770;88;20220;-76
2022/08/03 10:17:47;;;;;;;1.40;0.85;;;34.00;82.20;;;;;;6731744;88;20192;-79
2022/08/03 10:27:50;;;;;;;1.98;0.80;;;34.80;80.30;;;;;;6738623;88;20243;-80
2022/08/03 10:37:51;;;;;;;1.50;0.80;;;36.50;79.30;;;;;;6734529;88;20206;-79
2022/08/03 10:47:54;;;;;;;1.05;0.80;;;38.00;76.70;;;;;;6729012;76;20659;-78
2022/08/03 10:57:55;;;;;;;1.20;0.80;;;38.10;75.70;;;;;;6704487;88;20194;-78
2022/08/03 11:08:26;;;;;;;1.00;0.75;;;39.40;73.30;;;;;;6695196;88;20670;-77
2022/08/03 11:18:27;;;;;;;1.20;0.82;;;39.60;71.40;;;;;;6696744;88;20617;-78
2022/08/03 11:28:28;;;;;;;1.15;0.77;;;38.90;71.20;;;;;;6707086;88;20194;-77
2022/08/03 11:38:29;;;;;;;0.93;0.70;;;39.40;70.30;;;;;;6707331;88;20657;-77
2022/08/03 11:48:36;;;;;;;1.20;0.82;;;40.40;69.20;;;;;;6704508;88;20362;-78
2022/08/03 11:58:44;;;;;;;1.13;0.77;;;40.80;68.50;;;;;;6697669;88;20190;-78
2022/08/03 12:08:46;;;;;;;1.10;0.70;;;40.10;67.30;;;;;;6700572;88;20724;-78
2022/08/03 12:18:57;;;;;;;1.00;0.70;;;39.40;67.30;;;;;;6702859;88;20171;-77
2022/08/03 12:28:58;;;;;;;1.00;0.70;;;39.30;67.10;;;;;;6697672;88;20198;-77
2022/08/03 12:39:02;;;;;;;1.73;0.90;;;40.10;65.90;;;;;;6696330;88;20225;-78
2022/08/03 12:49:17;;;;;;;0.90;0.60;;;40.80;65.30;;;;;;6699451;88;20221;-77
2022/08/03 12:59:29;;;;;;;1.10;0.80;;;40.70;65.30;;;;;;6694660;88;20276;-78
2022/08/03 13:09:40;;;;;;;1.17;0.80;;;40.90;64.00;;;;;;6690492;88;20204;-77
2022/08/03 13:19:41;;;;;;;0.98;0.70;;;41.40;62.90;;;;;;6706345;88;20209;-76
2022/08/03 13:29:42;;;;;;;1.35;0.80;;;39.50;64.60;;;;;;6694459;88;20190;-78
2022/08/03 13:39:43;;;;;;;1.10;0.60;;;40.00;63.50;;;;;;6701185;88;20629;-78
2022/08/03 13:49:43;;;;;;;1.83;0.82;;;39.50;63.40;;;;;;6700488;88;20199;-79
2022/08/03 13:59:44;;;;;;;1.10;0.70;;;38.80;64.90;;;;;;6693800;88;20183;-77
2022/08/03 14:09:44;;;;;;;0.90;0.70;;;39.70;63.50;;;;;;6700299;88;20260;-78
2022/08/03 14:19:45;;;;;;;1.00;0.70;;;40.00;62.60;;;;;;6699718;88;21076;-77
2022/08/03 14:29:46;;;;;;;0.88;0.70;;;40.20;62.40;;;;;;6702890;88;20434;-77
2022/08/03 14:39:47;;;;;;;1.10;0.80;;;40.70;62.40;;;;;;6702996;88;20410;-77
2022/08/03 14:49:48;;;;;;;0.98;0.62;;;41.20;62.00;;;;;;6696999;88;20201;-76
2022/08/03 14:59:48;;;;;;;1.00;0.70;;;40.90;61.10;;;;;;6692279;88;20194;-76
2022/08/03 15:09:49;;;;;;;1.40;0.80;;;40.50;61.30;;;;;;6696306;88;20333;-78
2022/08/03 15:19:49;;;;;;;0.93;0.70;;;40.70;60.70;;;;;;6701412;88;20329;-76
2022/08/03 15:29:50;;;;;;;1.00;0.70;;;39.40;61.00;;;;;;6692670;88;20186;-78
2022/08/03 15:39:51;;;;;;;1.20;0.65;;;39.10;61.10;;;;;;6693503;88;20733;-76
2022/08/03 15:49:51;;;;;;;1.10;0.53;;;37.50;62.50;;;;;;6693868;88;20408;-76
2022/08/03 15:59:52;;;;;;;1.10;0.60;;;37.80;63.20;;;;;;6697134;88;20567;-77
2022/08/03 16:09:52;;;;;;;0.93;0.60;;;38.20;63.90;;;;;;6698257;88;20256;-75
2022/08/03 16:19:53;;;;;;;1.00;0.70;;;38.20;65.30;;;;;;6705812;88;20722;-75
2022/08/03 16:29:54;;;;;;;0.90;0.60;;;38.10;65.60;;;;;;6705265;88;20275;-74
2022/08/03 16:39:54;;;;;;;1.00;0.50;;;38.10;65.00;;;;;;6701980;88;20193;-76
2022/08/03 16:49:55;;;;;;;0.90;0.60;;;38.70;64.30;;;;;;6710482;77;20202;-79
2022/08/03 16:59:55;;;;;;;1.30;0.63;;;38.10;65.60;;;;;;6692136;88;20726;-77
2022/08/03 17:09:56;;;;;;;0.80;0.60;;;36.90;63.70;;;;;;6685423;88;20615;-76
2022/08/03 17:19:58;;;;;;;0.90;0.52;;;36.20;65.50;;;;;;6685782;88;20255;-78
2022/08/03 17:30:03;;;;;;;0.80;0.55;;;36.80;64.10;;;;;;6690718;88;20249;-78
2022/08/03 17:40:04;;;;;;;1.12;0.70;;;39.10;62.30;;;;;;6690249;88;20299;-78
2022/08/03 17:50:05;;;;;;;1.00;0.65;;;38.90;62.40;;;;;;6685316;88;20191;-78
2022/08/03 18:10:31;;;;;;;1.08;0.70;;;35.00;67.80;;;;;;6686119;88;20205;-79
2022/08/03 18:20:33;;;;;;;2.30;0.93;;;34.20;70.30;;;;;;6682025;88;20797;-78
2022/08/03 18:30:36;;;;;;;1.00;0.70;;;33.70;69.80;;;;;;6682066;88;20198;-77
2022/08/03 18:40:36;;;;;;;1.05;0.55;;;33.00;71.30;;;;;;6684349;88;20294;-77
2022/08/03 18:50:48;;;;;;;1.12;0.60;;;32.60;72.10;;;;;;6681118;88;20792;-78
2022/08/03 19:00:59;;;;;;;1.35;0.95;;;32.00;74.20;;;;;;6679339;88;20183;-78
2022/08/03 19:11:04;;;;;;;1.63;0.93;;;31.60;73.70;;;;;;6676415;88;20246;-79
2022/08/03 19:21:07;;;;;;;1.00;0.60;;;31.30;74.90;;;;;;6688610;88;20198;-78
2022/08/03 19:31:09;;;;;;;1.02;0.60;;;30.90;75.50;;;;;;6684494;88;20206;-80
2022/08/03 19:41:12;;;;;;;1.25;0.60;;;30.40;75.90;;;;;;6687700;88;20694;-80
2022/08/03 19:51:13;;;;;;;1.90;0.80;;;30.00;77.40;;;;;;6685984;88;20477;-80
2022/08/03 20:01:14;;;;;;;1.20;0.80;;;29.60;77.80;;;;;;6689637;88;20183;-80
2022/08/03 20:11:15;;;;;;;1.33;0.77;;;29.20;79.00;;;;;;6694740;88;20201;-80
2022/08/03 20:21:17;;;;;;;1.83;0.90;;;28.80;81.20;;;;;;6684354;88;20191;-79
2022/08/03 20:31:19;;;;;;;;;;;28.50;81.90;;;;;;6688297;88;20199;-81
2022/08/03 20:41:19;;;;;;;1.65;0.80;;;28.30;83.00;;;;;;6689215;88;20720;-81
2022/08/03 20:51:20;;;;;;;1.53;0.80;;;28.00;82.90;;;;;;6687610;88;20254;-79
2022/08/03 21:01:21;;;;;;;1.00;0.60;;;27.80;84.80;;;;;;6686023;88;20276;-78
2022/08/03 21:11:23;;;;;;;1.48;0.90;;;27.50;84.50;;;;;;6685856;88;20206;-78
2022/08/03 21:21:25;;;;;;;;;;;27.30;85.10;;;;;;6702950;88;20261;-79
2022/08/03 21:31:26;;;;;;;1.67;0.93;;;27.10;85.50;;;;;;6703290;88;20533;-79
2022/08/03 21:41:29;;;;;;;1.65;1.00;;;27.00;86.80;;;;;;6701911;88;20302;-78
2022/08/03 21:51:32;;;;;;;1.42;0.80;;;26.70;87.70;;;;;;6702054;88;20259;-79
2022/08/03 22:01:34;;;;;;;1.70;0.80;;;26.50;89.20;;;;;;6698732;88;20194;-78
2022/08/03 22:11:36;;;;;;;1.33;0.80;;;26.40;89.30;;;;;;6687303;88;20220;-78
2022/08/03 22:21:38;;;;;;;1.75;0.80;;;26.30;90.40;;;;;;6681351;88;20216;-79
2022/08/03 22:31:39;;;;;;;1.53;0.90;;;26.10;91.10;;;;;;6684566;88;20207;-79
2022/08/03 22:41:40;;;;;;;2.65;0.70;;;26.00;92.10;;;;;;6683502;88;20205;-78
2022/08/03 22:51:41;;;;;;;2.22;0.93;;;25.80;92.90;;;;;;6710245;76;20197;-75
2022/08/03 23:01:43;;;;;;;1.92;0.70;;;25.50;93.90;;;;;;6730069;88;20189;-78
2022/08/03 23:11:45;;;;;;;2.67;1.02;;;25.30;94.70;;;;;;6730276;88;20672;-75
2022/08/03 23:21:46;;;;;;;1.05;0.70;;;25.20;97.60;;;;;;6732394;88;20235;-76
2022/08/03 23:31:47;;;;;;;1.92;0.80;;;25.30;98.20;;;;;;6725138;88;20808;-75
2022/08/03 23:41:49;;;;;;;2.28;0.77;;;25.00;99.90;;;;;;6731076;88;20197;-75
2022/08/03 23:52:10;;;;;;;1.70;0.90;;;24.70;99.90;;;;;;6730346;88;20196;-77
